createdAt,value
2022-08-16T00:04:51.104Z,7.95
2022-08-16T00:07:18.120Z,8.18
2022-08-16T00:09:45.210Z,6.38
2022-08-16T00:12:12.440Z,5.68
2022-08-16T00:14:45.275Z,6.38
2022-08-16T00:17:18.297Z,6.32
2022-08-16T00:19:45.271Z,7.65
2022-08-16T00:22:13.751Z,7.05
2022-08-16T00:24:44.846Z,7.85
2022-08-16T00:27:13.435Z,8.68
2022-08-16T00:29:41.203Z,8.15
2022-08-16T00:32:08.576Z,8.40
2022-08-16T00:34:44.526Z,8.23
2022-08-16T00:37:21.059Z,7.97
2022-08-16T00:39:57.671Z,7.57
2022-08-16T00:42:30.345Z,6.70
2022-08-16T00:45:08.011Z,6.72
2022-08-16T00:47:39.266Z,7.22
2022-08-16T00:50:11.446Z,6.15
2022-08-16T00:52:50.657Z,6.00
2022-08-16T00:55:19.776Z,6.03
2022-08-16T00:58:00.227Z,6.85
2022-08-16T01:00:30.486Z,6.40
2022-08-16T01:02:59.791Z,5.97
2022-08-16T01:05:27.384Z,5.97
2022-08-16T01:07:54.190Z,5.88
2022-08-16T01:10:31.489Z,6.40
2022-08-16T01:13:29.114Z,6.13
2022-08-16T01:16:20.015Z,6.75
2022-08-16T01:19:16.795Z,7.43
2022-08-16T01:22:46.794Z,7.78
2022-08-16T01:24:55.630Z,7.75
2022-08-16T01:27:31.132Z,7.80
2022-08-16T01:30:19.697Z,10.23
2022-08-16T01:33:01.413Z,9.40
2022-08-16T01:35:35.069Z,8.45
2022-08-16T01:40:47.142Z,8.70
2022-08-16T01:43:13.937Z,8.43
2022-08-16T01:45:43.466Z,8.25
2022-08-16T01:48:19.748Z,7.47
2022-08-16T01:51:16.237Z,7.05
2022-08-16T01:53:40.721Z,7.05
2022-08-16T01:56:08.657Z,7.10
2022-08-16T01:58:50.875Z,7.33
2022-08-16T02:01:18.115Z,8.32
2022-08-16T02:03:44.664Z,9.57
2022-08-16T02:06:33.932Z,9.40
2022-08-16T02:09:02.567Z,9.02
2022-08-16T02:11:47.713Z,8.82
2022-08-16T02:14:18.092Z,7.78
2022-08-16T02:16:45.118Z,8.55
2022-08-16T02:19:16.432Z,7.95
2022-08-16T02:22:07.623Z,9.05
2022-08-16T02:24:40.807Z,8.60
2022-08-16T02:27:08.405Z,8.73
2022-08-16T02:29:34.868Z,8.18
2022-08-16T02:32:03.616Z,9.95
2022-08-16T02:34:32.877Z,10.10
2022-08-16T02:37:01.458Z,8.98
2022-08-16T02:39:27.996Z,9.68
2022-08-16T02:41:56.827Z,9.15
2022-08-16T02:44:27.069Z,7.65
2022-08-16T02:46:55.148Z,7.47
2022-08-16T02:49:32.285Z,8.48
2022-08-16T02:52:11.314Z,8.45
2022-08-16T02:54:55.392Z,8.45
2022-08-16T02:57:23.431Z,7.93
2022-08-16T02:59:50.355Z,8.32
2022-08-16T03:02:17.829Z,8.60
2022-08-16T03:04:52.087Z,7.03
2022-08-16T03:07:27.749Z,6.90
2022-08-16T03:09:54.432Z,7.63
2022-08-16T03:12:21.074Z,7.70
2022-08-16T03:14:57.062Z,7.70
2022-08-16T03:17:23.533Z,7.53
2022-08-16T03:20:00.191Z,6.90
2022-08-16T03:22:29.643Z,7.03
2022-08-16T03:25:01.149Z,6.63
2022-08-16T03:27:32.410Z,7.10
2022-08-16T03:30:25.725Z,7.13
2022-08-16T03:32:52.300Z,6.60
2022-08-16T03:35:32.626Z,6.15
2022-08-16T03:38:04.043Z,6.25
2022-08-16T03:40:33.841Z,6.75
2022-08-16T03:43:19.847Z,6.68
2022-08-16T03:45:48.790Z,6.88
2022-08-16T03:48:19.832Z,7.25
2022-08-16T03:50:59.788Z,7.90
2022-08-16T03:53:27.280Z,7.55
2022-08-16T03:56:05.193Z,8.30
2022-08-16T03:58:33.801Z,7.07
2022-08-16T04:01:00.284Z,7.25
2022-08-16T04:03:26.909Z,7.88
2022-08-16T04:05:56.797Z,8.57
2022-08-16T04:08:24.633Z,7.85
2022-08-16T04:10:55.030Z,7.07
2022-08-16T04:14:00.709Z,7.40
2022-08-16T04:16:09.611Z,7.88
2022-08-16T04:18:54.423Z,7.18
2022-08-16T04:21:29.882Z,7.82
2022-08-16T04:23:56.415Z,6.65
2022-08-16T04:26:22.847Z,6.95
2022-08-16T04:28:53.343Z,7.38
2022-08-16T04:31:23.625Z,7.45
2022-08-16T04:33:51.103Z,6.68
2022-08-16T04:36:19.899Z,6.22
2022-08-16T04:38:47.371Z,5.85
2022-08-16T04:41:17.264Z,5.40
2022-08-16T04:43:44.703Z,4.78
2022-08-16T04:47:01.186Z,5.53
2022-08-16T04:49:01.591Z,5.88
2022-08-16T04:51:28.260Z,5.78
2022-08-16T04:54:02.710Z,6.00
2022-08-16T04:56:30.910Z,6.30
2022-08-16T04:58:58.073Z,6.43
2022-08-16T05:01:24.671Z,6.75
2022-08-16T05:04:19.612Z,7.90
2022-08-16T05:06:46.872Z,7.72
2022-08-16T05:09:14.338Z,7.72
2022-08-16T05:11:42.973Z,7.55
2022-08-16T05:14:09.835Z,9.25
2022-08-16T05:16:36.436Z,9.35
2022-08-16T05:19:04.873Z,9.63
2022-08-16T05:21:35.900Z,8.43
2022-08-16T05:24:07.083Z,8.90
2022-08-16T05:26:37.439Z,9.48
2022-08-16T05:29:07.493Z,9.50
2022-08-16T05:31:37.951Z,7.97
2022-08-16T05:34:19.352Z,8.55
2022-08-16T05:36:46.417Z,7.30
2022-08-16T05:39:12.853Z,7.65
2022-08-16T05:41:45.464Z,8.05
2022-08-16T05:44:24.157Z,7.88
2022-08-16T05:46:57.079Z,9.23
2022-08-16T05:49:26.157Z,10.60
2022-08-16T05:52:11.536Z,8.73
2022-08-16T05:54:47.233Z,8.73
2022-08-16T05:57:16.985Z,7.90
2022-08-16T05:59:43.650Z,7.95
2022-08-16T06:02:10.146Z,7.47
2022-08-16T06:04:37.697Z,6.97
2022-08-16T06:07:08.936Z,7.35
2022-08-16T06:09:43.405Z,7.18
2022-08-16T06:12:27.166Z,7.53
2022-08-16T06:14:58.733Z,6.18
2022-08-16T06:17:42.421Z,5.63
2022-08-16T06:20:24.416Z,6.10
2022-08-16T06:22:58.684Z,6.10
2022-08-16T06:25:36.787Z,5.72
2022-08-16T06:28:16.843Z,5.93
2022-08-16T06:30:57.904Z,5.13
2022-08-16T06:33:24.735Z,5.78
2022-08-16T06:35:55.015Z,5.47
2022-08-16T06:38:33.830Z,5.90
2022-08-16T06:41:06.283Z,6.45
2022-08-16T06:43:40.341Z,5.55
2022-08-16T06:46:10.137Z,6.20
2022-08-16T06:48:37.822Z,6.65
2022-08-16T06:51:09.705Z,7.10
2022-08-16T06:53:36.724Z,6.80
2022-08-16T06:56:14.857Z,5.65
2022-08-16T06:58:50.495Z,5.05
2022-08-16T07:01:20.122Z,5.70
2022-08-16T07:03:55.637Z,5.85
2022-08-16T07:06:26.492Z,5.00
2022-08-16T07:08:54.055Z,5.45
2022-08-16T07:11:20.849Z,5.03
2022-08-16T07:14:26.318Z,4.85
2022-08-16T07:17:00.021Z,5.82
2022-08-16T07:19:33.699Z,4.25
2022-08-16T07:22:38.047Z,5.15
2022-08-16T07:25:06.191Z,4.35
2022-08-16T07:27:33.725Z,4.70
2022-08-16T07:30:00.928Z,4.82
2022-08-16T07:32:29.623Z,4.40
2022-08-16T07:34:58.040Z,3.50
2022-08-16T07:37:24.718Z,4.80
2022-08-16T07:39:52.004Z,4.07
2022-08-16T07:42:28.354Z,4.70
2022-08-16T07:45:03.365Z,3.45
2022-08-16T07:47:34.253Z,3.88
2022-08-16T07:50:05.475Z,4.53
2022-08-16T07:52:34.205Z,4.20
2022-08-16T07:55:00.659Z,3.78
2022-08-16T07:57:28.171Z,3.40
2022-08-16T07:59:57.375Z,3.60
2022-08-16T08:02:27.343Z,3.47
2022-08-16T08:04:55.615Z,3.10
2022-08-16T08:07:22.561Z,3.05
2022-08-16T08:09:54.017Z,3.92
2022-08-16T08:12:32.005Z,3.20
2022-08-16T08:15:05.950Z,2.47
2022-08-16T08:17:42.580Z,2.50
2022-08-16T08:20:20.065Z,2.67
2022-08-16T08:23:00.811Z,2.70
2022-08-16T08:25:53.854Z,2.60
2022-08-16T08:28:17.434Z,2.22
2022-08-16T08:30:51.803Z,2.13
2022-08-16T08:33:27.766Z,2.30
2022-08-16T08:35:56.976Z,2.30
2022-08-16T08:38:44.984Z,2.47
2022-08-16T08:41:13.359Z,1.98
2022-08-16T08:43:41.494Z,1.83
2022-08-16T08:46:17.953Z,2.03
2022-08-16T08:48:59.720Z,2.17
2022-08-16T08:51:35.605Z,2.10
2022-08-16T08:54:06.564Z,2.10
2022-08-16T08:56:34.992Z,1.83
2022-08-16T08:59:06.099Z,1.73
2022-08-16T09:01:43.023Z,1.77
2022-08-16T09:04:23.545Z,1.80
2022-08-16T09:06:50.461Z,1.85
2022-08-16T09:09:17.522Z,2.15
2022-08-16T09:11:49.558Z,1.83
2022-08-16T09:14:23.886Z,1.90
2022-08-16T09:17:01.295Z,1.75
2022-08-16T09:19:34.651Z,1.67
2022-08-16T09:22:01.743Z,1.70
2022-08-16T09:24:51.802Z,1.63
2022-08-16T09:27:14.833Z,1.70
2022-08-16T09:29:44.878Z,1.63
2022-08-16T09:32:12.833Z,1.83
2022-08-16T09:34:58.365Z,1.92
2022-08-16T09:37:29.543Z,1.73
2022-08-16T09:39:59.416Z,1.80
2022-08-16T09:42:28.847Z,1.42
2022-08-16T09:45:12.114Z,1.70
2022-08-16T09:47:57.425Z,1.70
2022-08-16T09:50:36.967Z,1.80
2022-08-16T09:53:17.303Z,1.70
2022-08-16T09:55:49.313Z,1.80
2022-08-16T09:58:40.660Z,1.90
2022-08-16T10:01:06.338Z,2.20
2022-08-16T10:03:35.066Z,1.95
2022-08-16T10:06:01.788Z,2.03
2022-08-16T10:08:28.325Z,1.65
2022-08-16T10:11:13.510Z,3.63
2022-08-16T10:13:41.564Z,39.25
2022-08-16T10:18:41.281Z,2.75
2022-08-16T10:21:23.634Z,2.67
2022-08-16T10:23:53.593Z,3.95
2022-08-16T10:27:11.290Z,7.25
2022-08-16T10:29:11.550Z,2.45
2022-08-16T10:31:44.526Z,2.08
2022-08-16T10:34:32.038Z,3.72
2022-08-16T10:37:01.224Z,3.22
2022-08-16T10:39:40.673Z,2.45
2022-08-16T10:42:09.906Z,2.47
2022-08-16T10:44:36.639Z,2.00
2022-08-16T10:47:03.651Z,3.03
2022-08-16T10:49:30.896Z,2.45
2022-08-16T10:52:01.660Z,2.92
2022-08-16T10:54:59.571Z,2.72
2022-08-16T10:57:32.880Z,2.40
2022-08-16T11:00:01.336Z,1.88
2022-08-16T11:02:59.864Z,2.05
2022-08-16T11:05:17.006Z,2.13
2022-08-16T11:07:52.279Z,2.33
2022-08-16T11:19:12.380Z,1.80
2022-08-16T11:24:40.054Z,1.67
2022-08-16T11:27:35.374Z,2.20
2022-08-16T11:29:57.521Z,1.90
2022-08-16T11:32:31.833Z,1.75
2022-08-16T11:35:10.855Z,1.65
2022-08-16T11:40:32.736Z,1.90
2022-08-16T11:43:01.347Z,1.60
2022-08-16T11:45:28.066Z,1.52
2022-08-16T11:48:00.358Z,1.70
2022-08-16T11:50:27.486Z,1.67
2022-08-16T11:52:53.965Z,1.70
2022-08-16T11:55:23.624Z,2.15
2022-08-16T11:57:56.333Z,1.70
2022-08-16T12:00:50.239Z,1.70
2022-08-16T12:03:14.135Z,1.60
2022-08-16T12:05:43.969Z,1.63
2022-08-16T12:08:12.628Z,1.83
2022-08-16T12:10:40.607Z,1.67
2022-08-16T12:13:10.958Z,2.10
2022-08-16T12:15:37.939Z,2.03
2022-08-16T12:18:06.879Z,2.00
2022-08-16T12:20:37.436Z,1.90
2022-08-16T12:23:05.174Z,1.60
2022-08-16T12:25:33.629Z,2.17
2022-08-16T12:28:02.174Z,2.08
2022-08-16T12:30:38.684Z,1.88
2022-08-16T12:33:07.795Z,1.80
2022-08-16T12:35:37.157Z,2.30
2022-08-16T12:38:08.632Z,1.95
2022-08-16T12:40:55.495Z,1.95
2022-08-16T12:43:24.848Z,1.73
2022-08-16T12:45:55.236Z,2.00
2022-08-16T12:48:49.234Z,1.80
2022-08-16T12:51:22.367Z,1.88
2022-08-16T12:53:52.882Z,2.20
2022-08-16T12:56:21.902Z,2.15
2022-08-16T12:58:53.267Z,1.77
2022-08-16T13:01:27.448Z,1.80
2022-08-16T13:06:44.805Z,2.03
2022-08-16T13:09:23.678Z,1.90
2022-08-16T13:12:19.186Z,2.23
2022-08-16T13:14:47.401Z,1.80
2022-08-16T13:17:21.714Z,2.30
2022-08-16T13:25:17.390Z,2.17
2022-08-16T13:28:03.459Z,1.80
2022-08-16T13:30:37.751Z,2.00
2022-08-16T13:33:12.502Z,1.90
2022-08-16T13:35:43.955Z,1.67
2022-08-16T13:38:24.375Z,1.60
2022-08-16T13:40:53.182Z,1.67
2022-08-16T13:43:23.370Z,2.10
2022-08-16T13:45:50.436Z,2.13
2022-08-16T13:48:21.732Z,1.63
2022-08-16T13:50:53.267Z,2.10
2022-08-16T13:53:24.469Z,1.60
2022-08-16T13:55:58.436Z,1.90
2022-08-16T13:58:34.670Z,1.95
2022-08-16T14:01:03.291Z,2.05
2022-08-16T14:03:29.743Z,2.20
2022-08-16T14:05:56.805Z,1.80
2022-08-16T14:08:27.175Z,1.80
2022-08-16T14:10:54.298Z,1.98
2022-08-16T14:13:21.717Z,1.90
2022-08-16T14:15:48.782Z,2.20
2022-08-16T14:18:20.305Z,2.05
2022-08-16T14:20:48.604Z,1.60
2022-08-16T14:23:21.819Z,2.20
2022-08-16T14:25:53.944Z,1.85
2022-08-16T14:28:23.554Z,2.33
2022-08-16T14:30:52.456Z,1.70
2022-08-16T14:33:19.881Z,1.55
2022-08-16T14:35:50.355Z,1.92
2022-08-16T14:38:19.178Z,2.17
2022-08-16T14:40:55.145Z,1.50
2022-08-16T14:43:22.310Z,1.92
2022-08-16T14:45:50.376Z,2.35
2022-08-16T14:48:25.145Z,2.08
2022-08-16T14:50:53.283Z,1.90
2022-08-16T14:53:20.238Z,2.15
2022-08-16T14:55:48.386Z,2.17
2022-08-16T14:58:19.601Z,2.10
2022-08-16T15:00:47.780Z,1.73
2022-08-16T15:03:21.152Z,1.85
2022-08-16T15:05:48.280Z,2.10
2022-08-16T15:08:17.065Z,2.22
2022-08-16T15:10:45.845Z,1.92
2022-08-16T15:13:12.779Z,2.13
2022-08-16T15:15:41.770Z,2.30
2022-08-16T15:18:11.763Z,2.25
2022-08-16T15:20:39.650Z,2.10
2022-08-16T15:23:09.087Z,2.05
2022-08-16T15:25:43.602Z,2.08
2022-08-16T15:28:30.946Z,2.10
2022-08-16T15:31:03.244Z,2.28
2022-08-16T15:33:32.991Z,2.15
2022-08-16T15:36:00.105Z,2.00
2022-08-16T15:38:55.239Z,2.35
2022-08-16T15:41:38.989Z,2.22
2022-08-16T15:44:21.319Z,1.90
2022-08-16T15:46:55.470Z,1.83
2022-08-16T15:49:25.106Z,2.15
2022-08-16T15:52:01.079Z,1.92
2022-08-16T15:54:33.510Z,2.05
2022-08-16T15:57:11.852Z,2.17
2022-08-16T15:59:48.768Z,2.05
2022-08-16T16:02:29.556Z,2.10
2022-08-16T16:05:04.329Z,2.10
2022-08-16T16:07:33.433Z,2.13
2022-08-16T16:10:02.663Z,1.90
2022-08-16T16:12:51.607Z,2.10
2022-08-16T16:15:18.539Z,2.25
2022-08-16T16:17:51.216Z,1.92
2022-08-16T16:20:27.618Z,2.28
2022-08-16T16:22:59.242Z,2.30
2022-08-16T16:25:26.316Z,2.25
2022-08-16T16:27:55.233Z,1.98
2022-08-16T16:30:33.346Z,1.98
2022-08-16T16:33:04.988Z,2.10
2022-08-16T16:35:34.861Z,1.83
2022-08-16T16:38:01.877Z,1.98
2022-08-16T16:40:38.844Z,2.00
2022-08-16T16:43:14.235Z,1.83
2022-08-16T16:45:43.700Z,2.30
2022-08-16T16:48:12.449Z,2.22
2022-08-16T16:50:44.624Z,1.90
2022-08-16T16:53:17.517Z,2.20
2022-08-16T16:55:52.025Z,2.30
2022-08-16T16:58:43.520Z,2.05
2022-08-16T17:01:10.779Z,1.70
2022-08-16T17:03:38.428Z,2.53
2022-08-16T17:06:09.347Z,2.47
2022-08-16T17:08:41.535Z,1.80
2022-08-16T17:11:09.773Z,2.10
2022-08-16T17:13:36.757Z,2.08
2022-08-16T17:16:04.929Z,1.75
2022-08-16T17:19:14.303Z,2.60
2022-08-16T17:21:19.808Z,2.03
2022-08-16T17:23:59.315Z,2.55
2022-08-16T17:26:29.729Z,2.22
2022-08-16T17:29:10.867Z,2.40
2022-08-16T17:31:43.290Z,2.05
2022-08-16T17:34:29.451Z,2.15
2022-08-16T17:36:58.747Z,2.00
2022-08-16T17:39:29.678Z,2.35
2022-08-16T17:41:57.893Z,2.50
2022-08-16T17:44:24.365Z,2.42
2022-08-16T17:46:52.834Z,2.30
2022-08-16T17:49:20.415Z,2.35
2022-08-16T17:51:47.293Z,2.20
2022-08-16T17:54:29.859Z,2.33
2022-08-16T17:57:00.743Z,2.10
2022-08-16T17:59:28.177Z,2.40
2022-08-16T18:01:55.690Z,2.65
2022-08-16T18:04:48.815Z,2.17
2022-08-16T18:07:10.130Z,2.42
2022-08-16T18:09:37.017Z,2.65
2022-08-16T18:12:44.122Z,2.72
2022-08-16T18:15:02.971Z,2.67
2022-08-16T18:17:29.435Z,2.17
2022-08-16T18:19:55.924Z,2.50
2022-08-16T18:22:30.551Z,2.60
2022-08-16T18:24:57.918Z,2.17
2022-08-16T18:27:25.252Z,2.60
2022-08-16T18:29:53.694Z,2.65
2022-08-16T18:32:21.942Z,2.83
2022-08-16T18:34:51.273Z,2.80
2022-08-16T18:37:17.768Z,2.92
2022-08-16T18:39:44.252Z,3.40
2022-08-16T18:42:13.718Z,2.60
2022-08-16T18:44:42.051Z,2.70
2022-08-16T18:47:09.206Z,2.60
2022-08-16T18:49:36.716Z,2.92
2022-08-16T18:52:04.089Z,2.58
2022-08-16T18:54:31.799Z,2.70
2022-08-16T18:56:58.505Z,2.78
2022-08-16T18:59:27.728Z,2.50
2022-08-16T19:01:59.705Z,2.85
2022-08-16T19:04:55.436Z,2.92
2022-08-16T19:07:17.981Z,2.50
2022-08-16T19:09:44.497Z,2.65
2022-08-16T19:12:11.216Z,2.60
2022-08-16T19:14:42.534Z,2.60
2022-08-16T19:17:11.249Z,2.42
2022-08-16T19:19:37.895Z,3.00
2022-08-16T19:22:05.900Z,2.65
2022-08-16T19:24:32.536Z,3.08
2022-08-16T19:26:59.030Z,3.03
2022-08-16T19:29:28.425Z,3.25
2022-08-16T19:31:54.925Z,3.00
2022-08-16T19:34:21.516Z,2.70
2022-08-16T19:36:48.084Z,3.10
2022-08-16T19:39:15.903Z,2.80
2022-08-16T19:41:50.433Z,3.13
2022-08-16T19:44:21.094Z,2.75
2022-08-16T19:46:49.148Z,3.58
2022-08-16T19:49:16.769Z,2.80
2022-08-16T19:51:44.752Z,2.85
2022-08-16T19:54:11.195Z,3.08
2022-08-16T19:56:37.939Z,3.08
2022-08-16T19:59:21.966Z,3.85
2022-08-16T20:01:53.172Z,3.13
2022-08-16T20:04:21.845Z,3.10
2022-08-16T20:06:48.528Z,3.20
2022-08-16T20:09:16.008Z,3.20
2022-08-16T20:11:47.653Z,3.65
2022-08-16T20:14:24.283Z,3.25
2022-08-16T20:16:51.839Z,3.38
2022-08-16T20:19:18.642Z,3.00
2022-08-16T20:21:45.150Z,2.88
2022-08-16T20:24:32.481Z,3.60
2022-08-16T20:26:58.451Z,3.10
2022-08-16T20:29:25.153Z,2.85
2022-08-16T20:31:51.721Z,2.90
2022-08-16T20:34:18.441Z,3.10
2022-08-16T20:36:44.984Z,3.00
2022-08-16T20:39:14.928Z,3.03
2022-08-16T20:41:42.725Z,2.95
2022-08-16T20:44:10.459Z,3.00
2022-08-16T20:46:38.997Z,3.08
2022-08-16T20:49:08.981Z,3.15
2022-08-16T20:51:47.055Z,2.88
2022-08-16T20:54:19.333Z,2.95
2022-08-16T20:56:45.883Z,3.30
2022-08-16T20:59:12.354Z,3.60
2022-08-16T21:01:46.861Z,3.25
2022-08-16T21:04:18.812Z,3.10
2022-08-16T21:06:53.185Z,3.15
2022-08-16T21:09:32.675Z,3.30
2022-08-16T21:12:01.818Z,3.53
2022-08-16T21:14:32.422Z,3.97
2022-08-16T21:16:58.876Z,3.25
2022-08-16T21:19:26.841Z,3.67
2022-08-16T21:21:53.621Z,3.42
2022-08-16T21:24:20.122Z,3.40
2022-08-16T21:26:53.072Z,3.00
2022-08-16T21:29:22.420Z,2.92
2022-08-16T21:31:51.383Z,3.40
2022-08-16T21:34:17.821Z,3.40
2022-08-16T21:36:44.371Z,3.03
2022-08-16T21:39:11.066Z,3.75
2022-08-16T21:41:38.473Z,3.63
2022-08-16T21:44:05.878Z,3.15
2022-08-16T21:46:33.848Z,3.90
2022-08-16T21:49:00.353Z,3.50
2022-08-16T21:51:26.807Z,2.92
2022-08-16T21:53:53.346Z,3.33
2022-08-16T21:56:19.866Z,3.00
2022-08-16T21:58:46.722Z,3.20
2022-08-16T22:01:22.722Z,3.50
2022-08-16T22:03:49.888Z,3.22
2022-08-16T22:06:37.650Z,3.53
2022-08-16T22:09:06.323Z,3.38
2022-08-16T22:11:33.280Z,3.55
2022-08-16T22:14:00.456Z,4.07
2022-08-16T22:16:33.587Z,3.47
2022-08-16T22:19:01.249Z,3.90
2022-08-16T22:21:28.087Z,4.10
2022-08-16T22:23:58.089Z,3.30
2022-08-16T22:26:29.912Z,3.42
2022-08-16T22:28:58.345Z,3.20
2022-08-16T22:31:25.343Z,3.65
2022-08-16T22:33:51.842Z,2.85
2022-08-16T22:36:18.396Z,3.53
2022-08-16T22:38:53.918Z,3.85
2022-08-16T22:41:23.749Z,3.30
2022-08-16T22:43:50.251Z,3.78
2022-08-16T22:46:16.774Z,3.33
2022-08-16T22:48:43.310Z,3.33
2022-08-16T22:51:10.118Z,3.47
2022-08-16T22:53:37.495Z,3.58
2022-08-16T22:56:04.742Z,3.38
2022-08-16T22:58:36.233Z,3.53
2022-08-16T23:01:05.863Z,3.15
2022-08-16T23:03:32.900Z,3.78
2022-08-16T23:06:02.457Z,3.63
2022-08-16T23:08:38.538Z,3.47
2022-08-16T23:11:07.735Z,3.67
2022-08-16T23:13:34.306Z,3.25
2022-08-16T23:16:10.709Z,3.55
2022-08-16T23:18:39.072Z,3.40
2022-08-16T23:21:09.542Z,3.42
2022-08-16T23:23:37.074Z,3.38
2022-08-16T23:26:44.873Z,3.30
2022-08-16T23:28:50.922Z,3.83
2022-08-16T23:31:17.623Z,3.45
2022-08-16T23:33:44.793Z,4.45
2022-08-16T23:36:11.966Z,3.05
2022-08-16T23:38:39.682Z,3.45
2022-08-16T23:41:11.448Z,3.33
2022-08-16T23:43:41.656Z,3.80
2022-08-16T23:46:11.732Z,3.95
2022-08-16T23:49:57.199Z,3.40
2022-08-16T23:51:24.643Z,3.53
2022-08-16T23:53:51.183Z,3.50
2022-08-16T23:56:20.336Z,3.20
2022-08-16T23:58:54.398Z,3.55
